Time;durP1;ratioP1;P1;durP2;ratioP2;P2;SDS_P1;SDS_P2;PMS_P1;PMS_P2;Temp;Humidity;BMP_temperature;BMP_pressure;BME280_temperature;BME280_humidity;BME280_pressure;Samples;Min_cycle;Max_cycle;Signal;HPM_P1;HPM_P2
2022/04/06 00:00:08;;;;;;;0.90;0.90;;;9.20;99.90;;;;;;5052678;28;20131;-84
2022/04/06 00:02:34;;;;;;;0.60;0.35;;;9.30;99.90;;;;;;5052885;28;20088;-84
2022/04/06 00:05:00;;;;;;;0.00;0.00;;;9.30;99.90;;;;;;5035824;28;20053;-84
2022/04/06 00:07:26;;;;;;;0.00;0.00;;;9.30;99.90;;;;;;5052530;28;20060;-84
2022/04/06 00:09:52;;;;;;;0.10;0.10;;;9.30;99.90;;;;;;5052483;28;20080;-84
2022/04/06 00:12:18;;;;;;;0.50;0.30;;;9.20;99.90;;;;;;5052777;28;20095;-84
2022/04/06 00:14:43;;;;;;;0.40;0.30;;;9.20;99.90;;;;;;5051927;28;20128;-84
2022/04/06 00:17:10;;;;;;;0.13;0.08;;;9.30;99.90;;;;;;5052369;28;20049;-83
2022/04/06 00:19:36;;;;;;;0.00;0.00;;;9.20;99.90;;;;;;5052416;28;20386;-84
2022/04/06 00:22:03;;;;;;;0.10;0.10;;;9.30;99.90;;;;;;5052403;28;20037;-84
2022/04/06 00:24:29;;;;;;;0.45;0.45;;;9.20;99.90;;;;;;5052171;28;20410;-83
2022/04/06 00:26:55;;;;;;;0.08;0.08;;;9.20;99.90;;;;;;5036407;28;20041;-84
2022/04/06 00:29:21;;;;;;;0.00;0.00;;;9.20;99.90;;;;;;5035758;28;20485;-83
2022/04/06 00:31:46;;;;;;;1.15;0.35;;;9.20;99.90;;;;;;5035780;28;20056;-84
2022/04/06 00:34:12;;;;;;;0.00;0.00;;;9.20;99.90;;;;;;5052306;28;20408;-83
2022/04/06 00:36:38;;;;;;;0.98;0.32;;;9.20;99.90;;;;;;5052306;28;20049;-83
2022/04/06 00:39:03;;;;;;;1.17;0.85;;;9.20;99.90;;;;;;5052489;28;20041;-84
2022/04/06 00:41:29;;;;;;;0.20;0.03;;;9.20;99.90;;;;;;5052431;28;20053;-83
2022/04/06 00:44:15;;;;;;;0.63;0.63;;;9.20;99.90;;;;;;5035447;28;20045;-84
2022/04/06 00:46:42;;;;;;;1.65;0.90;;;9.20;99.90;;;;;;5051918;28;20051;-83
2022/04/06 00:49:11;;;;;;;1.85;0.65;;;9.20;99.90;;;;;;5035522;28;20127;-83
2022/04/06 00:51:45;;;;;;;0.75;0.43;;;9.20;99.90;;;;;;5035500;28;20057;-84
2022/04/06 00:54:13;;;;;;;0.15;0.15;;;9.20;99.90;;;;;;5052945;28;20049;-83
2022/04/06 00:56:40;;;;;;;1.80;1.70;;;9.20;99.90;;;;;;5035658;28;20151;-84
2022/04/06 00:59:06;;;;;;;0.10;0.10;;;9.10;99.90;;;;;;5035402;28;20045;-83
2022/04/06 01:01:31;;;;;;;1.75;0.77;;;9.20;99.90;;;;;;5051857;28;20049;-83
2022/04/06 01:03:57;;;;;;;0.10;0.10;;;9.20;99.90;;;;;;5038861;28;20408;-83
2022/04/06 01:06:23;;;;;;;2.45;0.15;;;9.20;99.90;;;;;;5055707;28;20037;-83
2022/04/06 01:08:51;;;;;;;0.38;0.20;;;9.10;99.90;;;;;;5055673;28;20389;-83
2022/04/06 01:11:18;;;;;;;0.15;0.00;;;9.20;99.90;;;;;;5055864;28;20048;-84
2022/04/06 01:13:45;;;;;;;0.03;0.03;;;9.20;99.90;;;;;;5039013;28;20047;-84
2022/04/06 01:16:11;;;;;;;0.57;0.30;;;9.20;99.90;;;;;;5038656;28;20080;-84
2022/04/06 01:18:36;;;;;;;0.00;0.00;;;9.10;99.90;;;;;;5055794;28;20481;-84
2022/04/06 01:21:03;;;;;;;0.10;0.10;;;9.10;99.90;;;;;;5055408;28;20132;-83
2022/04/06 01:23:30;;;;;;;0.47;0.38;;;9.20;99.90;;;;;;5055474;28;20049;-83
2022/04/06 01:25:55;;;;;;;0.55;0.45;;;9.20;99.90;;;;;;5038826;28;20404;-84
2022/04/06 01:28:21;;;;;;;5.82;0.55;;;9.10;99.90;;;;;;5038831;28;20049;-84
2022/04/06 01:30:47;;;;;;;0.00;0.00;;;9.10;99.90;;;;;;5055373;28;20037;-84
2022/04/06 01:33:13;;;;;;;0.08;0.08;;;9.10;99.90;;;;;;5038820;28;20061;-83
2022/04/06 01:35:41;;;;;;;0.15;0.15;;;9.20;99.90;;;;;;5055658;28;20047;-84
2022/04/06 01:38:07;;;;;;;1.15;0.68;;;9.10;99.90;;;;;;5038348;28;20051;-84
2022/04/06 01:40:33;;;;;;;0.00;0.00;;;9.10;99.90;;;;;;5054829;28;20041;-84
2022/04/06 01:42:59;;;;;;;0.25;0.15;;;9.10;99.90;;;;;;5038712;28;20416;-84
2022/04/06 01:45:25;;;;;;;0.13;0.13;;;9.10;99.90;;;;;;5055205;28;20459;-83
2022/04/06 01:47:50;;;;;;;0.43;0.20;;;9.10;99.90;;;;;;5039129;28;20132;-83
2022/04/06 01:53:03;;;;;;;0.00;0.00;;;9.10;99.90;;;;;;5055164;28;20045;-84
2022/04/06 01:55:28;;;;;;;0.50;0.50;;;9.10;99.90;;;;;;5054894;28;20053;-83
2022/04/06 01:57:54;;;;;;;0.22;0.22;;;9.10;99.90;;;;;;5054941;28;20045;-83
2022/04/06 02:00:20;;;;;;;0.28;0.05;;;9.10;99.90;;;;;;5054814;28;20041;-84
2022/04/06 02:02:51;;;;;;;1.75;0.90;;;9.10;99.90;;;;;;5054560;28;20081;-83
2022/04/06 02:05:17;;;;;;;0.10;0.10;;;9.10;99.90;;;;;;5038526;28;20056;-84
2022/04/06 02:07:46;;;;;;;0.20;0.10;;;9.10;99.90;;;;;;5054361;28;20044;-84
2022/04/06 02:10:12;;;;;;;2.22;0.40;;;9.10;99.90;;;;;;5054655;28;20090;-83
2022/04/06 02:12:39;;;;;;;0.00;0.00;;;9.10;99.90;;;;;;5037798;28;20143;-83
2022/04/06 02:15:06;;;;;;;1.60;0.85;;;9.10;99.90;;;;;;5052789;28;20049;-83
2022/04/06 02:17:33;;;;;;;5.97;1.02;;;9.10;99.90;;;;;;5054667;28;20117;-84
2022/04/06 02:19:58;;;;;;;0.68;0.55;;;9.20;99.90;;;;;;5054122;28;20374;-84
2022/04/06 02:22:24;;;;;;;0.00;0.00;;;9.30;99.90;;;;;;5054067;28;20127;-84
2022/04/06 02:24:50;;;;;;;0.25;0.25;;;9.10;99.90;;;;;;5037620;28;20392;-84
2022/04/06 02:27:16;;;;;;;0.55;0.55;;;9.10;99.90;;;;;;5054297;28;20044;-83
2022/04/06 02:29:41;;;;;;;0.25;0.10;;;9.20;99.90;;;;;;5053579;28;20432;-84
2022/04/06 02:32:08;;;;;;;0.20;0.20;;;9.10;99.90;;;;;;5054254;28;20045;-84
2022/04/06 02:34:33;;;;;;;0.00;0.00;;;9.20;99.90;;;;;;5037724;28;20242;-84
2022/04/06 02:37:00;;;;;;;0.30;0.25;;;9.10;99.90;;;;;;5054236;28;20495;-84
2022/04/06 02:39:26;;;;;;;1.02;0.45;;;9.10;99.90;;;;;;5053742;28;20041;-84
2022/04/06 02:41:51;;;;;;;0.00;0.00;;;9.10;99.90;;;;;;5053717;28;20132;-84
2022/04/06 02:44:17;;;;;;;0.20;0.10;;;9.20;99.90;;;;;;5037332;28;20095;-83
2022/04/06 02:46:48;;;;;;;0.00;0.00;;;9.20;99.90;;;;;;5054119;28;20041;-83
2022/04/06 02:49:14;;;;;;;0.70;0.30;;;9.20;99.90;;;;;;5037666;28;20067;-84
2022/04/06 02:51:40;;;;;;;0.00;0.00;;;9.20;99.90;;;;;;5053996;28;20049;-84
2022/04/06 02:54:06;;;;;;;0.00;0.00;;;9.10;99.90;;;;;;5053791;28;20127;-83
2022/04/06 02:56:32;;;;;;;0.22;0.22;;;9.20;99.90;;;;;;5037619;28;20556;-84
2022/04/06 02:58:58;;;;;;;1.35;0.35;;;9.10;99.90;;;;;;5036845;28;20041;-84
2022/04/06 03:01:24;;;;;;;0.57;0.17;;;9.20;99.90;;;;;;5037096;28;20106;-84
2022/04/06 03:03:50;;;;;;;2.85;0.40;;;9.20;99.90;;;;;;5053669;28;20045;-84
2022/04/06 03:06:16;;;;;;;0.70;0.03;;;9.20;99.90;;;;;;5036321;28;20053;-83
2022/04/06 03:08:42;;;;;;;0.10;0.10;;;9.20;99.90;;;;;;5051468;28;20045;-83
2022/04/06 03:11:08;;;;;;;1.08;0.10;;;9.20;99.90;;;;;;5052128;28;20766;-84
2022/04/06 03:13:34;;;;;;;0.73;0.73;;;9.20;99.90;;;;;;5053252;28;20474;-84
2022/04/06 03:16:00;;;;;;;0.30;0.30;;;9.20;99.90;;;;;;5053034;28;20055;-84
2022/04/06 03:18:26;;;;;;;0.90;0.90;;;9.20;99.90;;;;;;5053220;28;20049;-84
2022/04/06 03:20:51;;;;;;;0.32;0.30;;;9.20;99.90;;;;;;5053430;28;20095;-84
2022/04/06 03:23:17;;;;;;;0.00;0.00;;;9.30;99.90;;;;;;5053070;28;20045;-84
2022/04/06 03:25:44;;;;;;;0.20;0.05;;;9.20;99.90;;;;;;5037129;28;20143;-84
2022/04/06 03:28:09;;;;;;;0.43;0.00;;;9.20;99.90;;;;;;5053128;28;20447;-84
2022/04/06 03:30:36;;;;;;;0.73;0.38;;;9.30;99.90;;;;;;5036639;28;20104;-84
2022/04/06 03:33:02;;;;;;;1.35;0.85;;;9.20;99.90;;;;;;5053107;28;20037;-84
2022/04/06 03:35:29;;;;;;;0.47;0.40;;;9.30;99.90;;;;;;5052852;28;20045;-84
2022/04/06 03:37:54;;;;;;;0.90;0.85;;;9.20;99.90;;;;;;5035960;28;20041;-84
2022/04/06 03:40:20;;;;;;;2.95;1.35;;;9.30;99.90;;;;;;5036426;28;20139;-84
2022/04/06 03:42:46;;;;;;;0.35;0.35;;;9.30;99.90;;;;;;5053579;28;20044;-84
2022/04/06 03:45:12;;;;;;;0.20;0.20;;;9.30;99.90;;;;;;5036999;28;20045;-84
2022/04/06 03:47:41;;;;;;;0.63;0.22;;;9.30;99.90;;;;;;5052799;28;20040;-84
2022/04/06 03:50:08;;;;;;;3.22;0.88;;;9.30;99.90;;;;;;5052789;28;20048;-84
2022/04/06 03:52:33;;;;;;;0.70;0.30;;;9.30;99.90;;;;;;5052695;28;20037;-84
2022/04/06 03:54:59;;;;;;;0.10;0.10;;;9.30;99.90;;;;;;5036146;28;20069;-84
2022/04/06 03:57:25;;;;;;;0.65;0.10;;;9.20;99.90;;;;;;5052626;28;20056;-84
2022/04/06 03:59:51;;;;;;;0.90;0.45;;;9.30;99.90;;;;;;5052490;28;20052;-84
2022/04/06 04:02:17;;;;;;;0.98;0.75;;;9.30;99.90;;;;;;5052295;28;20488;-84
2022/04/06 04:04:43;;;;;;;1.90;0.10;;;9.20;99.90;;;;;;5035913;28;20055;-84
2022/04/06 04:07:09;;;;;;;0.22;0.20;;;9.20;99.90;;;;;;5035910;28;20045;-84
2022/04/06 04:09:35;;;;;;;2.63;0.60;;;9.30;99.90;;;;;;5052549;28;20045;-85
2022/04/06 04:12:02;;;;;;;0.00;0.00;;;9.20;99.90;;;;;;5035867;28;20076;-84
2022/04/06 04:14:31;;;;;;;5.03;1.17;;;9.20;99.90;;;;;;5052508;28;20485;-84
2022/04/06 04:16:58;;;;;;;0.00;0.00;;;9.20;99.90;;;;;;5035551;28;20144;-84
2022/04/06 04:19:24;;;;;;;1.58;0.25;;;9.30;99.90;;;;;;5035499;28;20435;-84
2022/04/06 04:21:50;;;;;;;0.68;0.35;;;9.20;99.90;;;;;;5051714;28;20136;-84
2022/04/06 04:24:15;;;;;;;1.95;0.47;;;9.30;99.90;;;;;;5051698;28;20053;-85
2022/04/06 04:26:41;;;;;;;0.08;0.00;;;9.20;99.90;;;;;;5035032;28;20393;-84
2022/04/06 04:29:07;;;;;;;0.00;0.00;;;9.20;99.90;;;;;;5052480;28;20103;-84
2022/04/06 04:31:34;;;;;;;0.13;0.05;;;9.20;99.90;;;;;;5052479;28;20048;-84
2022/04/06 04:34:00;;;;;;;0.10;0.10;;;9.20;99.90;;;;;;5052496;28;20049;-84
2022/04/06 04:36:27;;;;;;;1.55;0.65;;;9.20;99.90;;;;;;5035627;28;20053;-83
2022/04/06 04:38:52;;;;;;;0.17;0.15;;;9.20;99.90;;;;;;5056393;28;20174;-84
2022/04/06 04:41:18;;;;;;;6.38;1.48;;;9.20;99.90;;;;;;5056366;28;20057;-84
2022/04/06 04:43:44;;;;;;;0.00;0.00;;;9.20;99.90;;;;;;5056739;28;20048;-84
2022/04/06 04:46:09;;;;;;;0.65;0.30;;;9.20;99.90;;;;;;5039737;28;20419;-84
2022/04/06 04:48:35;;;;;;;0.38;0.30;;;9.20;99.90;;;;;;5056196;28;20078;-84
2022/04/06 04:51:01;;;;;;;1.95;0.95;;;9.20;99.90;;;;;;5039418;28;20045;-84
2022/04/06 04:53:27;;;;;;;0.20;0.20;;;9.20;99.90;;;;;;5039334;28;20057;-84
2022/04/06 04:55:56;;;;;;;0.00;0.00;;;9.20;99.90;;;;;;5056050;28;20044;-84
2022/04/06 04:58:21;;;;;;;0.25;0.25;;;9.20;99.90;;;;;;5038861;28;20070;-84
2022/04/06 05:00:47;;;;;;;1.85;0.47;;;9.20;99.90;;;;;;5038981;28;20044;-84
2022/04/06 05:03:13;;;;;;;0.32;0.20;;;9.20;99.90;;;;;;5056038;28;20043;-84
2022/04/06 05:05:44;;;;;;;0.43;0.43;;;9.10;99.90;;;;;;5039182;28;20045;-85
2022/04/06 05:08:10;;;;;;;0.08;0.03;;;9.10;99.90;;;;;;5055263;28;20140;-85
2022/04/06 05:10:36;;;;;;;0.30;0.30;;;9.20;99.90;;;;;;5055441;28;20047;-85
2022/04/06 05:13:04;;;;;;;0.00;0.00;;;9.20;99.90;;;;;;5055992;28;20037;-86
2022/04/06 05:15:29;;;;;;;1.17;0.63;;;9.20;99.90;;;;;;5038617;28;20071;-85
2022/04/06 05:17:55;;;;;;;0.10;0.10;;;9.10;99.90;;;;;;5039271;28;20083;-85
2022/04/06 05:20:21;;;;;;;0.38;0.38;;;9.10;99.90;;;;;;5055900;28;20385;-85
2022/04/06 05:22:47;;;;;;;5.38;0.50;;;9.10;99.90;;;;;;5039494;28;20122;-84
2022/04/06 05:25:12;;;;;;;1.50;0.47;;;9.20;99.90;;;;;;5055472;28;20480;-84
2022/04/06 05:27:50;;;;;;;0.50;0.35;;;9.10;99.90;;;;;;5055481;28;20049;-84
2022/04/06 05:30:17;;;;;;;0.30;0.10;;;9.10;99.90;;;;;;5055458;28;20084;-84
2022/04/06 05:32:44;;;;;;;1.35;0.55;;;9.10;99.90;;;;;;5055118;28;20051;-84
2022/04/06 05:35:11;;;;;;;0.10;0.00;;;9.10;99.90;;;;;;5055344;28;20041;-83
2022/04/06 05:37:38;;;;;;;0.25;0.25;;;9.20;99.90;;;;;;5055103;28;20056;-84
2022/04/06 05:40:06;;;;;;;1.95;0.47;;;9.20;99.90;;;;;;5054889;28;20049;-84
2022/04/06 05:42:31;;;;;;;0.00;0.00;;;9.10;99.90;;;;;;5038166;28;20066;-84
2022/04/06 05:44:57;;;;;;;0.00;0.00;;;9.10;99.90;;;;;;5055094;28;20527;-83
2022/04/06 05:47:23;;;;;;;3.55;1.55;;;9.10;99.90;;;;;;5055128;28;20049;-84
2022/04/06 05:49:49;;;;;;;4.85;0.75;;;9.10;99.90;;;;;;5054736;28;20146;-85
2022/04/06 05:52:15;;;;;;;0.00;0.00;;;9.10;99.90;;;;;;5038543;28;20497;-85
2022/04/06 05:54:41;;;;;;;0.00;0.00;;;9.10;99.90;;;;;;5055865;28;20428;-85
2022/04/06 05:57:06;;;;;;;0.00;0.00;;;9.10;99.90;;;;;;5055147;28;20485;-84
2022/04/06 05:59:32;;;;;;;0.00;0.00;;;9.10;99.90;;;;;;5054519;28;20504;-84
2022/04/06 06:01:58;;;;;;;0.32;0.20;;;9.10;99.90;;;;;;5054668;28;20087;-84
2022/04/06 06:04:24;;;;;;;0.00;0.00;;;9.10;99.90;;;;;;5054369;28;20580;-84
2022/04/06 06:06:49;;;;;;;0.10;0.10;;;9.20;99.90;;;;;;5038089;28;20130;-84
2022/04/06 06:09:15;;;;;;;0.13;0.10;;;9.10;99.90;;;;;;5054608;28;20401;-84
2022/04/06 06:11:43;;;;;;;0.00;0.00;;;9.20;99.90;;;;;;5038084;28;20049;-84
2022/04/06 06:14:09;;;;;;;0.82;0.30;;;9.20;99.90;;;;;;5054592;28;20041;-83
2022/04/06 06:16:35;;;;;;;0.25;0.08;;;9.20;99.90;;;;;;5054020;28;20416;-84
2022/04/06 06:19:01;;;;;;;0.00;0.00;;;9.20;99.90;;;;;;5054961;28;20473;-84
2022/04/06 06:21:31;;;;;;;0.20;0.10;;;9.30;99.90;;;;;;5038381;28;20524;-85
2022/04/06 06:24:00;;;;;;;0.00;0.00;;;9.20;99.90;;;;;;5054712;28;20084;-84
2022/04/06 06:26:26;;;;;;;0.00;0.00;;;9.30;99.90;;;;;;5054538;28;20068;-84
2022/04/06 06:28:51;;;;;;;0.00;0.00;;;9.30;99.90;;;;;;5054389;28;20473;-84
2022/04/06 06:31:17;;;;;;;0.00;0.00;;;9.30;99.90;;;;;;5054448;28;20049;-84
2022/04/06 06:33:43;;;;;;;0.00;0.00;;;9.30;99.90;;;;;;5054343;28;20041;-84
2022/04/06 06:36:08;;;;;;;1.25;0.43;;;9.30;99.90;;;;;;5054632;28;20048;-84
2022/04/06 06:38:34;;;;;;;0.00;0.00;;;9.30;99.90;;;;;;5053569;28;20056;-84
2022/04/06 06:41:00;;;;;;;0.43;0.43;;;9.30;99.90;;;;;;5054166;28;20045;-84
2022/04/06 06:43:25;;;;;;;0.15;0.15;;;9.30;99.90;;;;;;5037379;28;20061;-84
2022/04/06 06:45:51;;;;;;;0.00;0.00;;;9.30;99.90;;;;;;5054295;28;20045;-84
2022/04/06 06:48:16;;;;;;;0.40;0.00;;;9.30;99.90;;;;;;5054243;28;20049;-84
2022/04/06 06:50:42;;;;;;;0.38;0.38;;;9.40;99.90;;;;;;5053847;28;20045;-83
2022/04/06 06:53:08;;;;;;;0.00;0.00;;;9.30;99.90;;;;;;5037112;28;20181;-84
2022/04/06 06:55:33;;;;;;;0.00;0.00;;;9.30;99.90;;;;;;5053956;28;20045;-84
2022/04/06 06:57:59;;;;;;;0.20;0.10;;;9.30;99.90;;;;;;5053659;28;20072;-84
2022/04/06 07:00:25;;;;;;;2.45;1.05;;;9.20;99.90;;;;;;5036801;28;20059;-84
2022/04/06 07:02:50;;;;;;;0.00;0.00;;;9.30;99.90;;;;;;5037739;28;20056;-84
2022/04/06 07:05:16;;;;;;;1.75;1.00;;;9.30;99.90;;;;;;5053668;28;20041;-84
2022/04/06 07:07:52;;;;;;;0.00;0.00;;;9.20;99.90;;;;;;5052974;28;20060;-84
2022/04/06 07:10:19;;;;;;;0.08;0.03;;;9.30;99.90;;;;;;5052919;28;20052;-85
2022/04/06 07:12:45;;;;;;;0.08;0.00;;;9.30;99.90;;;;;;5053453;28;20569;-84
2022/04/06 07:15:10;;;;;;;0.10;0.10;;;9.30;99.90;;;;;;5053566;28;20080;-84
2022/04/06 07:17:36;;;;;;;0.00;0.00;;;9.30;99.90;;;;;;5053075;28;20076;-84
2022/04/06 07:20:06;;;;;;;0.00;0.00;;;9.30;99.90;;;;;;5053137;28;20465;-84
2022/04/06 07:22:32;;;;;;;0.00;0.00;;;9.30;99.90;;;;;;5036807;28;20048;-84
2022/04/06 07:24:57;;;;;;;0.00;0.00;;;9.30;99.90;;;;;;5036289;28;20049;-83
2022/04/06 07:27:23;;;;;;;0.00;0.00;;;9.30;99.90;;;;;;5053064;28;20098;-84
2022/04/06 07:29:49;;;;;;;1.30;0.50;;;9.30;99.90;;;;;;5036530;28;20060;-84
2022/04/06 07:32:14;;;;;;;0.20;0.20;;;9.30;99.90;;;;;;5036501;28;20064;-84
2022/04/06 07:34:40;;;;;;;0.00;0.00;;;9.40;99.90;;;;;;5036920;28;20106;-84
2022/04/06 07:37:05;;;;;;;0.00;0.00;;;9.30;99.90;;;;;;5052827;28;20044;-84
2022/04/06 07:39:31;;;;;;;0.10;0.10;;;9.40;99.90;;;;;;5052764;28;20076;-84
2022/04/06 07:41:57;;;;;;;2.42;0.63;;;9.40;99.90;;;;;;5052952;28;20140;-84
2022/04/06 07:44:23;;;;;;;0.10;0.10;;;9.40;99.90;;;;;;5036499;28;20064;-85
2022/04/06 07:46:50;;;;;;;0.00;0.00;;;9.40;99.90;;;;;;5052943;28;20133;-85
2022/04/06 07:49:15;;;;;;;0.00;0.00;;;9.40;99.90;;;;;;5052953;28;20060;-85
2022/04/06 07:51:41;;;;;;;0.10;0.10;;;9.40;99.90;;;;;;5052912;28;20041;-85
2022/04/06 07:54:07;;;;;;;0.13;0.08;;;9.40;99.90;;;;;;5036204;28;20037;-84
2022/04/06 07:56:32;;;;;;;0.17;0.00;;;9.40;99.90;;;;;;5052885;28;20088;-84
2022/04/06 07:58:58;;;;;;;0.30;0.25;;;9.50;99.90;;;;;;5052070;28;20037;-85
2022/04/06 08:01:24;;;;;;;0.00;0.00;;;9.50;99.90;;;;;;5036073;28;20068;-84
2022/04/06 08:03:49;;;;;;;0.00;0.00;;;9.40;99.90;;;;;;5052639;28;20435;-85
2022/04/06 08:06:15;;;;;;;0.98;0.30;;;9.40;99.90;;;;;;5035990;28;20080;-85
2022/04/06 08:08:41;;;;;;;0.00;0.00;;;9.50;99.90;;;;;;5052573;28;20049;-85
2022/04/06 08:11:08;;;;;;;0.90;0.75;;;9.50;99.90;;;;;;5052251;28;20495;-85
2022/04/06 08:13:34;;;;;;;0.30;0.00;;;9.50;99.90;;;;;;5036144;28;20139;-85
2022/04/06 08:16:00;;;;;;;0.00;0.00;;;9.50;99.90;;;;;;5052517;28;20100;-85
2022/04/06 08:18:26;;;;;;;0.28;0.28;;;9.50;99.90;;;;;;5052189;28;20080;-85
2022/04/06 08:20:52;;;;;;;0.00;0.00;;;9.60;99.90;;;;;;5035586;28;20045;-85
2022/04/06 08:23:19;;;;;;;1.42;0.28;;;9.60;99.90;;;;;;5035781;28;20036;-85
2022/04/06 08:25:44;;;;;;;0.00;0.00;;;9.60;99.90;;;;;;5035711;28;20404;-85
2022/04/06 08:28:10;;;;;;;0.05;0.05;;;9.60;99.90;;;;;;5052286;28;20045;-85
2022/04/06 08:30:40;;;;;;;0.20;0.03;;;9.70;99.90;;;;;;5052429;28;20519;-85
2022/04/06 08:33:06;;;;;;;0.20;0.17;;;9.70;99.90;;;;;;5052412;28;20473;-85
2022/04/06 08:35:32;;;;;;;0.00;0.00;;;9.70;99.90;;;;;;5052546;28;20041;-84
2022/04/06 08:37:57;;;;;;;0.10;0.00;;;9.70;99.90;;;;;;5035821;28;20485;-85
2022/04/06 08:40:23;;;;;;;0.00;0.00;;;9.70;99.90;;;;;;5035578;28;20131;-84
2022/04/06 08:42:49;;;;;;;0.00;0.00;;;9.80;99.90;;;;;;5052532;28;20048;-84
2022/04/06 08:45:16;;;;;;;0.52;0.38;;;9.70;99.90;;;;;;5036242;28;20059;-85
2022/04/06 08:47:45;;;;;;;0.40;0.25;;;9.80;99.90;;;;;;5052534;28;20080;-85
2022/04/06 08:50:11;;;;;;;0.00;0.00;;;9.90;99.90;;;;;;5052314;28;20041;-85
2022/04/06 08:52:38;;;;;;;0.63;0.45;;;10.00;99.90;;;;;;5051931;28;20063;-85
2022/04/06 08:55:04;;;;;;;2.13;0.10;;;10.20;99.90;;;;;;5052795;28;20084;-85
2022/04/06 08:57:33;;;;;;;0.00;0.00;;;10.30;99.90;;;;;;5052370;28;20159;-84
2022/04/06 08:59:59;;;;;;;0.20;0.20;;;10.40;99.90;;;;;;5034947;28;20377;-85
2022/04/06 09:02:24;;;;;;;0.10;0.03;;;10.50;99.90;;;;;;5035077;28;20516;-85
2022/04/06 09:04:54;;;;;;;0.00;0.00;;;10.50;99.90;;;;;;5052073;28;20049;-85
2022/04/06 09:07:22;;;;;;;0.10;0.10;;;10.50;99.90;;;;;;5052045;28;20097;-85
2022/04/06 09:09:50;;;;;;;0.05;0.00;;;10.40;99.90;;;;;;5035415;28;20037;-84
2022/04/06 09:12:18;;;;;;;1.92;0.05;;;10.40;99.90;;;;;;5035199;28;20056;-85
2022/04/06 09:14:44;;;;;;;0.70;0.05;;;10.30;99.90;;;;;;5052024;28;20508;-85
2022/04/06 09:17:09;;;;;;;0.10;0.10;;;10.30;99.90;;;;;;5034917;28;20057;-85
2022/04/06 09:19:46;;;;;;;0.45;0.00;;;10.20;99.90;;;;;;5034948;28;20090;-85
2022/04/06 09:22:11;;;;;;;0.60;0.52;;;10.20;99.90;;;;;;5036012;28;20051;-85
2022/04/06 09:24:37;;;;;;;0.15;0.15;;;10.20;99.90;;;;;;5055267;28;20388;-85
2022/04/06 09:27:04;;;;;;;0.10;0.10;;;10.20;99.90;;;;;;5055419;28;20107;-85
2022/04/06 09:29:31;;;;;;;0.77;0.40;;;10.20;99.90;;;;;;5055486;28;20052;-85
2022/04/06 09:32:06;;;;;;;0.10;0.00;;;10.20;99.90;;;;;;5055425;28;20508;-84
2022/04/06 09:34:33;;;;;;;0.00;0.00;;;10.20;99.90;;;;;;5055411;28;20052;-85
2022/04/06 09:36:59;;;;;;;0.05;0.05;;;10.10;99.90;;;;;;5064177;28;20041;-85
2022/04/06 09:39:44;;;;;;;0.00;0.00;;;10.10;99.90;;;;;;5074802;28;20106;-86
2022/04/06 09:42:18;;;;;;;0.45;0.20;;;10.10;99.90;;;;;;5058198;28;20056;-86
2022/04/06 09:47:38;;;;;;;0.20;0.20;;;10.20;99.90;;;;;;5075317;28;20499;-84
2022/04/06 09:50:19;;;;;;;0.00;0.00;;;10.20;99.90;;;;;;5075559;28;20086;-85
2022/04/06 09:52:45;;;;;;;0.30;0.30;;;10.20;99.90;;;;;;5075007;28;20074;-85
2022/04/06 09:55:16;;;;;;;0.22;0.10;;;10.30;99.90;;;;;;5074626;28;20044;-85
2022/04/06 09:57:47;;;;;;;0.00;0.00;;;10.20;99.90;;;;;;5058867;28;20048;-85
2022/04/06 10:00:21;;;;;;;0.50;0.17;;;10.20;99.90;;;;;;5058156;28;20145;-86
2022/04/06 10:03:05;;;;;;;8.48;0.10;;;10.20;99.90;;;;;;5074764;28;20053;-86
2022/04/06 10:05:33;;;;;;;0.60;0.10;;;10.10;99.90;;;;;;5074549;28;20056;-86
2022/04/06 10:08:02;;;;;;;0.00;0.00;;;10.10;99.90;;;;;;5075017;28;20087;-86
2022/04/06 10:10:28;;;;;;;0.22;0.22;;;10.20;99.90;;;;;;5074891;28;20048;-87
2022/04/06 10:12:56;;;;;;;0.00;0.00;;;10.20;99.90;;;;;;5057768;28;20044;-86
2022/04/06 10:15:26;;;;;;;0.20;0.20;;;10.30;99.90;;;;;;5074069;28;20551;-86
2022/04/06 10:17:53;;;;;;;0.00;0.00;;;10.30;99.90;;;;;;5074410;28;20044;-86
2022/04/06 10:20:31;;;;;;;0.35;0.35;;;10.30;99.90;;;;;;5074718;28;20050;-86
2022/04/06 10:23:09;;;;;;;0.00;0.00;;;10.40;99.90;;;;;;5057944;28;20092;-85
2022/04/06 10:26:01;;;;;;;1.35;0.10;;;10.40;99.90;;;;;;5074532;28;20091;-85
2022/04/06 10:28:33;;;;;;;0.05;0.03;;;10.40;99.90;;;;;;5057708;28;20063;-85
2022/04/06 10:31:16;;;;;;;0.10;0.10;;;10.40;99.90;;;;;;5057888;28;20396;-85
2022/04/06 10:33:42;;;;;;;0.00;0.00;;;10.30;99.90;;;;;;5057722;28;20037;-85
2022/04/06 10:36:28;;;;;;;0.00;0.00;;;10.30;99.90;;;;;;5073403;28;20040;-85
2022/04/06 10:39:05;;;;;;;0.00;0.00;;;10.40;99.90;;;;;;5074010;28;20056;-85
2022/04/06 10:41:33;;;;;;;0.05;0.00;;;10.40;99.90;;;;;;5057535;28;20456;-85
2022/04/06 10:43:58;;;;;;;0.10;0.00;;;10.50;99.90;;;;;;5074023;28;20045;-85
2022/04/06 10:46:41;;;;;;;0.00;0.00;;;10.40;99.90;;;;;;5057061;28;20510;-85
2022/04/06 10:49:07;;;;;;;0.85;0.52;;;10.40;99.90;;;;;;5073727;28;20048;-86
2022/04/06 10:51:48;;;;;;;0.00;0.00;;;10.40;99.90;;;;;;5057258;28;20050;-86
2022/04/06 10:54:14;;;;;;;0.10;0.10;;;10.40;99.90;;;;;;5074057;28;20056;-85
2022/04/06 10:56:52;;;;;;;0.40;0.40;;;10.30;99.90;;;;;;5056885;28;20052;-85
2022/04/06 10:59:23;;;;;;;0.05;0.00;;;10.30;99.90;;;;;;5073360;28;20052;-85
2022/04/06 11:02:09;;;;;;;0.00;0.00;;;10.30;99.90;;;;;;5057081;28;20044;-85
2022/04/06 11:04:42;;;;;;;0.28;0.28;;;10.30;99.90;;;;;;5073523;28;20052;-85
2022/04/06 11:07:08;;;;;;;0.05;0.00;;;10.30;99.90;;;;;;5057280;28;20127;-85
2022/04/06 11:12:28;;;;;;;0.00;0.00;;;10.30;99.90;;;;;;5073862;28;20048;-86
2022/04/06 11:15:00;;;;;;;0.22;0.22;;;10.20;99.90;;;;;;5073024;28;20052;-85
2022/04/06 11:17:34;;;;;;;1.13;0.20;;;10.20;99.90;;;;;;5072892;28;20048;-85
2022/04/06 11:20:30;;;;;;;0.00;0.00;;;10.20;99.90;;;;;;5072987;28;20056;-85
2022/04/06 11:22:57;;;;;;;0.20;0.10;;;10.20;99.90;;;;;;5073052;28;20051;-85
2022/04/06 11:25:27;;;;;;;1.75;0.73;;;10.10;99.90;;;;;;5073178;28;20456;-85
2022/04/06 11:27:55;;;;;;;0.00;0.00;;;10.10;99.90;;;;;;5056578;28;20110;-85
2022/04/06 11:30:26;;;;;;;0.00;0.00;;;10.10;99.90;;;;;;5072853;28;20048;-85
2022/04/06 11:32:56;;;;;;;0.00;0.00;;;10.10;99.90;;;;;;5073118;28;20056;-86
2022/04/06 11:35:36;;;;;;;0.10;0.10;;;10.00;99.90;;;;;;5056503;28;20049;-85
2022/04/06 11:38:07;;;;;;;0.00;0.00;;;10.00;99.90;;;;;;5072487;28;20056;-85
2022/04/06 11:40:37;;;;;;;0.35;0.15;;;10.10;99.90;;;;;;5055844;28;20411;-85
2022/04/06 11:43:07;;;;;;;0.10;0.10;;;10.20;99.90;;;;;;5056312;28;20070;-86
2022/04/06 11:45:40;;;;;;;0.00;0.00;;;10.20;99.90;;;;;;5055863;28;20056;-85
2022/04/06 11:48:08;;;;;;;0.00;0.00;;;10.30;99.90;;;;;;5072876;28;20041;-85
2022/04/06 11:50:35;;;;;;;0.00;0.00;;;10.20;99.90;;;;;;5072649;28;20048;-85
2022/04/06 11:53:06;;;;;;;0.22;0.22;;;10.20;99.90;;;;;;5056502;28;20045;-85
2022/04/06 11:55:48;;;;;;;1.75;1.10;;;10.30;99.90;;;;;;5054971;28;20036;-86
2022/04/06 11:58:32;;;;;;;6.13;0.30;;;10.30;99.90;;;;;;5056117;28;20447;-86
2022/04/06 12:01:13;;;;;;;0.28;0.00;;;10.30;99.90;;;;;;5071706;28;20416;-86
2022/04/06 12:03:41;;;;;;;0.00;0.00;;;10.30;99.90;;;;;;5055787;28;20075;-86
2022/04/06 12:06:10;;;;;;;2.40;0.90;;;10.20;99.90;;;;;;5072647;28;20040;-86
2022/04/06 12:08:37;;;;;;;0.00;0.00;;;10.30;99.90;;;;;;5055643;28;20104;-86
2022/04/06 12:11:03;;;;;;;0.00;0.00;;;10.50;99.90;;;;;;5072431;28;20048;-86
2022/04/06 12:13:40;;;;;;;0.47;0.47;;;10.70;99.90;;;;;;5056430;28;20048;-85
2022/04/06 12:16:07;;;;;;;0.28;0.15;;;10.90;99.90;;;;;;5072374;28;20063;-86
2022/04/06 12:18:33;;;;;;;0.00;0.00;;;11.00;99.90;;;;;;5072417;28;20127;-86
2022/04/06 12:21:00;;;;;;;0.10;0.00;;;11.10;99.90;;;;;;5072372;28;20062;-85
2022/04/06 12:23:27;;;;;;;0.00;0.00;;;11.20;99.90;;;;;;5055713;28;20055;-85
2022/04/06 12:25:58;;;;;;;0.00;0.00;;;11.30;99.90;;;;;;5072555;28;20087;-85
2022/04/06 12:28:26;;;;;;;1.55;0.57;;;11.40;99.90;;;;;;5072548;28;20523;-85
2022/04/06 12:30:58;;;;;;;0.10;0.10;;;11.50;99.90;;;;;;5055327;28;20102;-86
2022/04/06 12:33:39;;;;;;;0.20;0.00;;;11.40;99.90;;;;;;5072151;28;20059;-86
2022/04/06 12:36:26;;;;;;;0.00;0.00;;;11.30;99.90;;;;;;5072492;28;20044;-86
2022/04/06 12:38:57;;;;;;;0.28;0.20;;;11.30;99.90;;;;;;5072257;28;20044;-86
2022/04/06 12:41:25;;;;;;;0.38;0.10;;;11.20;99.90;;;;;;5072563;28;20147;-87
2022/04/06 12:43:51;;;;;;;0.00;0.00;;;11.10;99.90;;;;;;5055559;28;20318;-86
2022/04/06 12:46:45;;;;;;;0.00;0.00;;;11.10;99.90;;;;;;5072382;28;20052;-86
2022/04/06 12:49:25;;;;;;;0.00;0.00;;;11.00;99.90;;;;;;5072341;28;20048;-86
2022/04/06 12:52:14;;;;;;;0.08;0.08;;;11.00;99.90;;;;;;5055597;28;20052;-86
2022/04/06 12:54:46;;;;;;;0.40;0.40;;;10.90;99.90;;;;;;5071850;28;20041;-86
2022/04/06 12:57:27;;;;;;;0.00;0.00;;;10.90;99.90;;;;;;5059817;28;20129;-86
2022/04/06 12:59:54;;;;;;;0.00;0.00;;;10.90;99.90;;;;;;5060527;28;20049;-86
2022/04/06 13:02:20;;;;;;;0.32;0.32;;;10.80;99.90;;;;;;5047570;28;20136;-86
2022/04/06 13:04:46;;;;;;;1.00;0.17;;;10.80;99.90;;;;;;5047344;28;20504;-86